Woodgate East, Indiana
Current Conditions -  °F | °C
As of 10:53 AM on Friday 24 Oct 2014 (Local Time) from KHUF Reporting Station
Broken Clouds Broken Clouds  
Wind Chill: 52°   Ceiling: 5500
Heat Index: 52°   Visibility: 9mi
Dew Point: 48°   Wind: 7mph
Humidity: 86%   Direction: 140°SE
Pressure: 30.12"   Gusts: NA
Location:  39.3587°N, 87.4056°W
Report Text: KHUF 241453Z 14006KT 9SM FEW025 BKN055 11/09 A3012 RMK AO2 SLP200 T01110089 52001
Loading
Personal Weather Stations






























Interactive Weather Map
Tropical Storm Tracking
New forecast layout! Learn more

10-Day Weather Forecast

Advertisements
Track Severe Weather on mobile